Time;durP1;ratioP1;P1;durP2;ratioP2;P2;SDS_P1;SDS_P2;PMS_P1;PMS_P2;Temp;Humidity;BMP_temperature;BMP_pressure;BME280_temperature;BME280_humidity;BME280_pressure;Samples;Min_cycle;Max_cycle;Signal;HPM_P1;HPM_P2
2024/04/22 00:01:58;;;;;;;9.23;3.92;;;;;;;4.53;68.04;99544.56;5374847;26;20351;-82
2024/04/22 00:04:23;;;;;;;5.18;3.67;;;;;;;4.44;67.87;99541.25;5347976;26;20012;-82
2024/04/22 00:06:48;;;;;;;5.82;3.90;;;;;;;4.40;68.15;99544.47;5368928;26;20011;-81
2024/04/22 00:09:14;;;;;;;5.32;4.03;;;;;;;4.31;68.51;99541.13;5378391;26;20019;-82
2024/04/22 00:11:40;;;;;;;6.03;4.03;;;;;;;4.01;68.21;99505.34;5378919;26;20147;-82
2024/04/22 00:14:06;;;;;;;7.25;4.00;;;;;;;4.29;68.84;99523.84;5378883;26;20012;-81
2024/04/22 00:16:31;;;;;;;6.15;4.28;;;;;;;4.40;68.25;99537.34;5379576;26;20003;-82
2024/04/22 00:18:56;;;;;;;7.43;4.00;;;;;;;4.44;68.40;99540.41;5353137;26;20005;-82
2024/04/22 00:21:22;;;;;;;5.55;4.10;;;;;;;4.40;68.54;99539.16;5380190;26;20000;-82
2024/04/22 00:23:47;;;;;;;6.15;3.72;;;;;;;4.37;68.09;99535.06;5339321;26;20000;-81
2024/04/22 00:26:12;;;;;;;5.72;3.80;;;;;;;4.29;68.41;99527.31;5375752;26;20004;-82
2024/04/22 00:28:38;;;;;;;6.13;4.20;;;;;;;4.34;67.79;99527.56;5344315;26;20001;-82
2024/04/22 00:31:04;;;;;;;6.18;4.15;;;;;;;4.35;68.43;99528.34;5408572;26;20012;-82
2024/04/22 00:33:29;;;;;;;8.30;4.00;;;;;;;4.33;68.18;99523.25;5369781;26;20440;-82
2024/04/22 00:35:56;;;;;;;8.02;4.60;;;;;;;4.26;68.04;99518.94;5367507;26;20000;-82
2024/04/22 00:38:21;;;;;;;5.18;3.53;;;;;;;4.31;68.08;99540.31;5367528;26;20028;-82
2024/04/22 00:40:47;;;;;;;6.00;3.78;;;;;;;4.24;68.41;99526.22;5376540;26;20366;-83
2024/04/22 00:43:12;;;;;;;6.35;4.47;;;;;;;4.11;68.52;99520.84;5349013;26;20000;-82
2024/04/22 00:45:38;;;;;;;8.50;4.13;;;;;;;4.13;68.79;99526.78;5351825;26;20001;-82
2024/04/22 00:48:04;;;;;;;5.43;3.40;;;;;;;4.28;68.79;99544.16;5363374;26;20005;-81
2024/04/22 00:50:30;;;;;;;5.97;4.28;;;;;;;4.08;68.42;99513.31;5406854;26;20015;-81
2024/04/22 00:52:58;;;;;;;6.47;4.30;;;;;;;4.04;68.52;99506.78;5381964;26;20427;-82
2024/04/22 00:55:25;;;;;;;5.75;4.55;;;;;;;4.21;68.39;99539.84;5376321;26;20055;-82
2024/04/22 00:57:52;;;;;;;6.15;4.20;;;;;;;3.97;68.41;99503.25;5346775;26;20001;-81
2024/04/22 01:00:17;;;;;;;5.93;4.30;;;;;;;4.03;68.86;99513.06;5375865;26;20053;-81
2024/04/22 01:02:43;;;;;;;6.25;4.25;;;;;;;4.20;69.07;99552.22;5375295;26;20015;-81
2024/04/22 01:05:08;;;;;;;7.47;4.88;;;;;;;3.88;68.59;99492.00;5372162;26;20003;-81
2024/04/22 01:07:34;;;;;;;4.85;4.15;;;;;;;4.02;68.60;99524.63;5346092;26;20008;-81
2024/04/22 01:10:02;;;;;;;7.75;4.43;;;;;;;4.01;68.71;99534.38;5370442;26;20028;-81
2024/04/22 01:12:27;;;;;;;8.00;3.97;;;;;;;4.06;68.71;99547.84;5403743;26;20005;-82
2024/04/22 01:14:53;;;;;;;7.55;4.45;;;;;;;3.99;69.78;99544.31;5380249;26;20044;-82
2024/04/22 01:17:18;;;;;;;7.25;4.40;;;;;;;3.97;69.11;99542.88;5376718;26;20004;-82
2024/04/22 01:19:43;;;;;;;10.40;4.88;;;;;;;4.20;69.00;99538.19;5377247;26;19996;-82
2024/04/22 01:22:09;;;;;;;7.80;4.13;;;;;;;4.13;69.19;99521.50;5373393;26;20000;-82
2024/04/22 01:24:34;;;;;;;6.07;4.18;;;;;;;4.09;69.24;99542.16;5376324;26;19997;-81
2024/04/22 01:27:05;;;;;;;6.07;4.50;;;;;;;3.72;70.01;99539.78;5334340;26;20001;-81
2024/04/22 01:29:30;;;;;;;7.13;4.65;;;;;;;3.87;70.54;99532.59;5370393;26;19996;-82
2024/04/22 01:31:56;;;;;;;6.43;4.93;;;;;;;4.15;70.28;99530.84;5380429;26;20018;-82
2024/04/22 01:34:21;;;;;;;7.57;4.93;;;;;;;3.66;71.05;99529.97;5371883;26;19997;-82
2024/04/22 01:36:46;;;;;;;10.55;5.43;;;;;;;3.46;71.55;99523.66;5364946;26;20007;-82
2024/04/22 01:39:12;;;;;;;8.52;5.40;;;;;;;2.62;74.53;99511.84;5367873;26;20020;-82
2024/04/22 01:41:37;;;;;;;7.40;4.75;;;;;;;3.14;73.80;99521.47;5346756;26;20593;-81
2024/04/22 01:44:03;;;;;;;9.48;6.45;;;;;;;2.92;75.42;99528.47;5369248;26;19996;-81
2024/04/22 01:46:28;;;;;;;11.25;5.78;;;;;;;2.81;75.22;99528.94;5376017;26;20008;-81
2024/04/22 01:48:53;;;;;;;8.10;5.15;;;;;;;2.48;78.53;99538.19;5346221;26;20037;-83
2024/04/22 01:51:19;;;;;;;9.98;4.80;;;;;;;3.19;76.28;99519.09;5366409;26;20012;-80
2024/04/22 01:53:44;;;;;;;7.95;5.32;;;;;;;3.25;74.46;99476.16;5345384;26;21485;-82
2024/04/22 01:56:10;;;;;;;7.75;5.55;;;;;;;3.13;74.00;99477.63;5353136;26;20230;-83
2024/04/22 01:58:35;;;;;;;8.80;5.72;;;;;;;3.07;75.88;99528.47;5370909;26;20015;-83
2024/04/22 02:01:04;;;;;;;7.20;5.53;;;;;;;2.69;76.55;99504.84;5323911;26;20000;-82
2024/04/22 02:03:30;;;;;;;9.20;5.43;;;;;;;2.51;79.04;99528.09;5375676;26;20077;-81
2024/04/22 02:05:55;;;;;;;8.20;5.32;;;;;;;3.49;74.84;99481.91;5346809;26;20459;-82
2024/04/22 02:08:20;;;;;;;8.07;5.32;;;;;;;4.06;72.54;99483.63;5315302;26;20037;-82
2024/04/22 02:10:46;;;;;;;7.93;5.25;;;;;;;4.39;72.08;99505.84;5370477;26;20004;-82
2024/04/22 02:13:11;;;;;;;7.05;4.70;;;;;;;3.77;71.48;99410.69;5380777;26;20530;-82
2024/04/22 02:15:37;;;;;;;6.53;4.93;;;;;;;4.44;71.41;99504.25;5380054;26;20000;-82
2024/04/22 02:18:02;;;;;;;8.65;5.32;;;;;;;4.32;71.82;99489.94;5377259;26;20000;-82
2024/04/22 02:20:28;;;;;;;7.00;5.03;;;;;;;4.34;71.06;99466.78;5374145;26;20011;-82
2024/04/22 02:22:54;;;;;;;8.40;5.22;;;;;;;4.45;70.68;99505.88;5345311;26;20440;-82
2024/04/22 02:25:19;;;;;;;7.32;5.00;;;;;;;4.56;71.29;99507.97;5373125;26;20067;-82
2024/04/22 02:27:45;;;;;;;6.88;5.10;;;;;;;4.68;70.91;99512.72;5368707;26;20003;-82
2024/04/22 02:30:11;;;;;;;6.47;4.65;;;;;;;4.24;71.29;99471.56;5376674;26;20023;-81
2024/04/22 02:32:36;;;;;;;7.07;5.10;;;;;;;4.39;70.78;99511.13;5348437;26;19997;-81
2024/04/22 02:35:01;;;;;;;5.88;4.78;;;;;;;4.20;72.26;99491.47;5383489;26;20058;-82
2024/04/22 02:37:27;;;;;;;7.28;4.72;;;;;;;4.40;71.20;99503.00;5368902;26;19992;-81
2024/04/22 02:39:53;;;;;;;6.95;5.20;;;;;;;4.31;71.08;99476.91;5383958;26;20043;-82
2024/04/22 02:42:18;;;;;;;8.68;5.03;;;;;;;4.29;71.88;99498.25;5384994;26;20212;-82
2024/04/22 02:44:44;;;;;;;8.25;4.90;;;;;;;3.82;72.37;99461.09;5381822;26;20004;-82
2024/04/22 02:47:09;;;;;;;7.80;5.50;;;;;;;4.18;72.44;99503.22;5342882;26;20445;-82
2024/04/22 02:49:34;;;;;;;7.45;4.72;;;;;;;4.42;71.88;99503.63;5375747;26;20001;-82
2024/04/22 02:52:00;;;;;;;8.25;5.32;;;;;;;4.56;71.71;99507.97;5378522;26;20069;-82
2024/04/22 02:54:28;;;;;;;10.52;5.00;;;;;;;4.47;71.48;99509.16;5371373;26;20016;-82
2024/04/22 02:56:56;;;;;;;8.80;4.90;;;;;;;4.18;72.33;99496.13;5370412;26;20004;-82
2024/04/22 02:59:22;;;;;;;9.02;5.28;;;;;;;4.05;72.08;99490.72;5357577;26;20016;-82
2024/04/22 03:01:51;;;;;;;10.93;5.35;;;;;;;3.16;74.02;99413.97;5366368;26;20008;-82
2024/04/22 03:04:17;;;;;;;6.93;5.10;;;;;;;3.94;74.35;99499.16;5374749;26;20086;-82
2024/04/22 03:06:42;;;;;;;12.63;6.45;;;;;;;3.56;74.18;99488.03;5377809;26;20016;-82
2024/04/22 03:09:07;;;;;;;10.45;6.13;;;;;;;3.64;73.70;99479.19;5367814;26;19997;-81
2024/04/22 03:11:33;;;;;;;7.53;4.90;;;;;;;3.78;73.99;99484.41;5368030;26;20321;-82
2024/04/22 03:13:58;;;;;;;8.20;5.85;;;;;;;3.48;75.23;99505.81;5377401;26;20000;-82
2024/04/22 03:16:24;;;;;;;9.32;5.85;;;;;;;2.98;77.79;99494.28;5380614;26;19996;-82
2024/04/22 03:18:49;;;;;;;10.57;6.75;;;;;;;2.84;78.33;99489.84;5372720;26;20015;-81
2024/04/22 03:21:14;;;;;;;9.77;6.20;;;;;;;2.50;80.98;99510.66;5378337;26;20000;-82
2024/04/22 03:23:40;;;;;;;11.35;7.55;;;;;;;2.26;81.91;99509.09;5347406;26;20004;-83
2024/04/22 03:26:05;;;;;;;13.15;6.70;;;;;;;2.16;83.99;99505.09;5372066;26;20004;-83
2024/04/22 03:28:30;;;;;;;9.65;6.85;;;;;;;2.36;82.93;99498.28;5345026;26;20008;-82
2024/04/22 03:30:56;;;;;;;12.50;8.05;;;;;;;1.47;86.98;99479.81;5337651;26;20516;-81
2024/04/22 03:33:21;;;;;;;12.40;8.55;;;;;;;1.42;89.45;99497.94;5377743;26;19996;-83
2024/04/22 03:35:46;;;;;;;15.93;10.10;;;;;;;1.61;88.69;99508.00;5346768;26;20019;-83
2024/04/22 03:38:13;;;;;;;16.33;9.48;;;;;;;1.27;89.22;99475.97;5342444;26;20011;-81
2024/04/22 03:40:39;;;;;;;13.40;7.63;;;;;;;1.52;88.40;99472.22;5336046;26;20023;-83
2024/04/22 03:43:04;;;;;;;12.00;7.35;;;;;;;1.15;90.34;99449.28;5379806;26;19996;-83
2024/04/22 03:45:29;;;;;;;13.90;8.75;;;;;;;1.22;90.17;99471.22;5364769;26;20005;-82
2024/04/22 03:50:40;;;;;;;11.38;7.78;;;;;;;2.13;85.96;99485.19;5370364;26;20003;-83
2024/04/22 03:53:07;;;;;;;10.73;8.05;;;;;;;1.39;89.94;99477.22;5364958;26;20460;-82
2024/04/22 03:55:33;;;;;;;15.98;7.80;;;;;;;1.64;90.27;99483.16;5375273;26;20000;-83
2024/04/22 03:57:58;;;;;;;18.37;9.37;;;;;;;1.36;89.22;99460.00;5343059;26;20019;-83
2024/04/22 04:00:23;;;;;;;13.10;7.82;;;;;;;1.50;90.49;99482.09;5377910;26;20278;-82
2024/04/22 04:02:49;;;;;;;12.00;7.78;;;;;;;2.05;87.03;99479.19;5374324;26;20000;-83
2024/04/22 04:05:14;;;;;;;13.45;9.07;;;;;;;1.62;89.08;99498.28;5337518;26;20003;-83
2024/04/22 04:07:40;;;;;;;17.20;10.18;;;;;;;1.29;90.72;99495.06;5375291;26;21231;-83
2024/04/22 04:10:05;;;;;;;18.52;10.10;;;;;;;1.11;92.07;99460.31;5374183;26;20010;-83
2024/04/22 04:12:31;;;;;;;16.08;9.95;;;;;;;1.45;91.09;99458.13;5350092;26;20017;-82
2024/04/22 04:14:56;;;;;;;14.82;10.48;;;;;;;1.61;90.65;99494.00;5350771;26;19992;-83
2024/04/22 04:17:22;;;;;;;16.65;11.57;;;;;;;1.29;92.77;99481.91;5374042;26;20008;-83
2024/04/22 04:19:47;;;;;;;17.73;11.70;;;;;;;0.94;92.31;99458.78;5342030;26;20024;-82
2024/04/22 04:22:13;;;;;;;17.58;11.52;;;;;;;1.66;93.32;99510.09;5369779;26;20008;-82
2024/04/22 04:24:38;;;;;;;20.38;12.35;;;;;;;0.55;92.58;99395.72;5373919;26;20000;-82
2024/04/22 04:27:04;;;;;;;16.48;11.38;;;;;;;1.10;93.35;99463.94;5346643;26;20012;-82
2024/04/22 04:29:29;;;;;;;18.08;11.32;;;;;;;1.17;92.48;99415.75;5369400;26;19997;-83
2024/04/22 04:31:54;;;;;;;18.33;11.93;;;;;;;1.86;90.31;99471.75;5367895;26;19997;-84
2024/04/22 04:34:20;;;;;;;17.65;10.93;;;;;;;1.49;89.81;99489.16;5372394;26;20415;-84
2024/04/22 04:36:45;;;;;;;23.48;12.10;;;;;;;1.13;92.49;99505.66;5374301;26;20004;-83
2024/04/22 04:39:11;;;;;;;17.80;11.82;;;;;;;0.87;93.89;99466.53;5354861;26;20004;-84
2024/04/22 04:41:36;;;;;;;22.08;12.45;;;;;;;-0.23;95.51;99314.34;5352080;26;20005;-84
2024/04/22 04:44:01;;;;;;;18.17;11.70;;;;;;;1.40;94.41;99489.38;5350308;26;20460;-84
2024/04/22 04:46:27;;;;;;;16.88;11.68;;;;;;;0.81;93.69;99429.59;5376555;26;20004;-84
2024/04/22 04:48:52;;;;;;;18.98;10.93;;;;;;;1.92;92.24;99482.41;5355325;26;20011;-83
2024/04/22 04:51:17;;;;;;;17.40;11.10;;;;;;;1.55;92.23;99521.84;5381388;26;20000;-84
2024/04/22 04:53:43;;;;;;;16.27;10.43;;;;;;;1.42;91.80;99513.72;5381695;26;20074;-82
2024/04/22 04:56:08;;;;;;;19.38;11.85;;;;;;;1.39;92.90;99514.88;5351650;26;20072;-82
2024/04/22 04:58:33;;;;;;;17.52;11.68;;;;;;;1.23;90.75;99412.41;5350781;26;20398;-82
2024/04/22 05:00:59;;;;;;;18.42;11.63;;;;;;;0.82;91.59;99403.16;5351390;26;20019;-81
2024/04/22 05:03:24;;;;;;;14.88;10.07;;;;;;;1.09;93.00;99423.66;5352088;26;20000;-84
2024/04/22 05:06:00;;;;;;;12.88;9.50;;;;;;;2.71;86.33;99475.69;5381584;26;20004;-85
2024/04/22 05:08:25;;;;;;;17.33;10.75;;;;;;;2.66;84.00;99481.50;5381839;26;20010;-85
2024/04/22 05:10:50;;;;;;;15.65;10.45;;;;;;;1.57;90.63;99524.28;5383289;26;20464;-84
2024/04/22 05:13:16;;;;;;;13.52;8.50;;;;;;;2.47;88.83;99518.91;5379195;26;20004;-85
2024/04/22 05:15:41;;;;;;;17.10;10.65;;;;;;;1.31;88.62;99422.06;5399113;26;20000;-85
2024/04/22 05:18:07;;;;;;;14.00;10.07;;;;;;;1.54;91.89;99517.56;5353559;26;20004;-85
2024/04/22 05:20:32;;;;;;;18.10;10.45;;;;;;;1.41;90.91;99407.69;5384728;26;20019;-87
2024/04/22 05:22:58;;;;;;;15.35;9.95;;;;;;;1.28;90.22;99427.69;5356750;26;20008;-86
2024/04/22 05:25:23;;;;;;;17.85;10.45;;;;;;;2.27;90.54;99531.78;5390727;26;20028;-85
2024/04/22 05:27:48;;;;;;;13.00;9.13;;;;;;;1.81;90.54;99442.56;5359681;26;20012;-84
2024/04/22 05:30:14;;;;;;;13.02;8.88;;;;;;;1.81;89.12;99435.47;5389225;26;19992;-85
2024/04/22 05:32:39;;;;;;;14.93;9.05;;;;;;;1.53;89.34;99401.00;5417506;26;20000;-85
2024/04/22 05:37:49;;;;;;;11.18;7.97;;;;;;;2.17;87.49;99452.22;5355155;26;20039;-85
2024/04/22 05:40:14;;;;;;;13.60;9.07;;;;;;;2.25;88.10;99525.06;5324784;26;20004;-85
2024/04/22 05:42:39;;;;;;;15.23;10.32;;;;;;;1.57;90.57;99476.94;5353291;26;20421;-85
2024/04/22 05:45:05;;;;;;;15.25;9.10;;;;;;;1.44;91.64;99457.28;5350902;26;20070;-85
2024/04/22 05:47:31;;;;;;;15.32;8.82;;;;;;;1.05;91.01;99429.47;5358693;26;20000;-85
2024/04/22 05:49:57;;;;;;;11.77;8.60;;;;;;;2.09;90.13;99491.81;5329416;26;20043;-85
2024/04/22 05:52:22;;;;;;;16.08;9.80;;;;;;;1.69;89.63;99468.47;5356417;26;20013;-85
2024/04/22 05:54:47;;;;;;;14.60;8.68;;;;;;;1.49;89.17;99402.34;5324421;26;20004;-85
2024/04/22 05:57:13;;;;;;;12.13;7.72;;;;;;;2.52;89.32;99492.84;5354598;26;20013;-85
2024/04/22 05:59:38;;;;;;;12.57;9.25;;;;;;;1.79;87.10;99416.41;5382625;26;20015;-85
2024/04/22 06:02:03;;;;;;;12.65;8.63;;;;;;;1.20;88.88;99409.34;5353609;26;20047;-85
2024/04/22 06:04:32;;;;;;;15.05;8.95;;;;;;;1.20;90.57;99420.66;5387376;26;19996;-85
2024/04/22 06:06:57;;;;;;;13.95;9.05;;;;;;;1.26;90.95;99432.28;5359764;26;20012;-86
2024/04/22 06:09:22;;;;;;;13.88;9.23;;;;;;;2.82;88.15;99514.75;5358665;26;20456;-86
2024/04/22 06:11:48;;;;;;;16.30;9.88;;;;;;;1.79;89.07;99520.84;5387492;26;20005;-87
2024/04/22 06:14:14;;;;;;;16.10;9.50;;;;;;;1.54;90.71;99517.56;5387360;26;20028;-87
2024/04/22 06:16:39;;;;;;;17.92;10.70;;;;;;;0.76;91.97;99411.72;5387332;26;20003;-86
2024/04/22 06:19:05;;;;;;;10.88;8.55;;;;;;;1.51;91.49;99521.34;5329015;26;19996;-86
2024/04/22 06:21:31;;;;;;;14.63;9.30;;;;;;;1.27;92.29;99525.94;5368098;26;20001;-87
2024/04/22 06:23:56;;;;;;;10.48;7.72;;;;;;;1.23;91.43;99436.09;5355134;26;20013;-87
2024/04/22 06:26:21;;;;;;;13.60;8.20;;;;;;;1.07;90.51;99422.22;5380251;26;20000;-87
2024/04/22 06:28:47;;;;;;;9.73;6.85;;;;;;;1.80;90.11;99494.34;5359683;26;19996;-86
2024/04/22 06:31:12;;;;;;;9.57;6.93;;;;;;;1.68;89.46;99529.16;5360356;26;19996;-87
2024/04/22 06:33:42;;;;;;;10.95;6.53;;;;;;;1.54;89.22;99522.81;5326704;26;20020;-86
2024/04/22 06:36:09;;;;;;;13.65;7.07;;;;;;;1.42;89.70;99455.84;5362194;26;19996;-87
2024/04/22 06:38:34;;;;;;;9.77;6.88;;;;;;;0.37;89.15;99321.66;5390327;26;20716;-87
2024/04/22 06:41:00;;;;;;;11.45;7.43;;;;;;;1.72;89.67;99498.88;5361063;26;20018;-87
2024/04/22 06:43:25;;;;;;;12.13;6.95;;;;;;;1.25;89.27;99373.63;5390667;26;20000;-87
2024/04/22 06:45:50;;;;;;;11.95;6.82;;;;;;;1.91;87.81;99448.38;5355663;26;20015;-87
2024/04/22 06:48:16;;;;;;;8.95;6.57;;;;;;;1.50;87.67;99438.19;5392669;26;20336;-86
2024/04/22 06:50:42;;;;;;;10.43;6.97;;;;;;;1.48;87.49;99440.19;5373514;26;20008;-87
2024/04/22 06:53:08;;;;;;;11.20;7.03;;;;;;;2.91;86.17;99447.75;5384965;26;19993;-87
2024/04/22 06:55:33;;;;;;;9.35;6.90;;;;;;;2.87;84.62;99402.50;5389019;26;20001;-87
2024/04/22 06:57:59;;;;;;;11.20;7.20;;;;;;;2.16;82.25;99405.03;5332903;26;20073;-87
2024/04/22 07:00:24;;;;;;;11.45;6.82;;;;;;;2.34;84.66;99508.19;5355183;26;20016;-86
2024/04/22 07:02:49;;;;;;;15.27;8.52;;;;;;;2.17;83.65;99452.22;5355929;26;20494;-87
2024/04/22 07:05:15;;;;;;;12.18;7.53;;;;;;;3.83;81.83;99446.03;5357269;26;20017;-87
2024/04/22 07:07:40;;;;;;;13.35;6.13;;;;;;;4.13;78.71;99410.53;5359752;26;20094;-86
2024/04/22 07:10:06;;;;;;;12.40;7.35;;;;;;;3.74;80.62;99527.19;5357510;26;20011;-86
2024/04/22 07:12:31;;;;;;;9.40;6.30;;;;;;;3.01;82.48;99438.53;5396182;26;20007;-87
2024/04/22 07:14:57;;;;;;;11.80;7.85;;;;;;;2.43;81.99;99450.97;5360776;26;20085;-87
2024/04/22 07:17:22;;;;;;;10.63;7.45;;;;;;;2.66;82.35;99507.88;5363633;26;20012;-87
2024/04/22 07:19:50;;;;;;;10.77;6.65;;;;;;;3.23;81.65;99402.50;5360410;26;19997;-87
2024/04/22 07:22:16;;;;;;;7.85;6.20;;;;;;;3.61;80.58;99426.78;5383890;26;19996;-87
2024/04/22 07:24:45;;;;;;;12.63;7.00;;;;;;;4.71;78.14;99499.13;5367413;26;20000;-87
2024/04/22 07:27:11;;;;;;;9.25;7.20;;;;;;;4.66;76.50;99438.91;5395651;26;20032;-86
2024/04/22 07:29:37;;;;;;;11.05;6.95;;;;;;;3.96;76.49;99433.78;5307238;26;20047;-87
2024/04/22 07:32:02;;;;;;;11.93;7.38;;;;;;;5.09;75.95;99497.66;5332801;26;20008;-87
2024/04/22 07:34:28;;;;;;;9.07;5.97;;;;;;;4.92;75.24;99448.75;5361456;26;19997;-86
2024/04/22 07:37:30;;;;;;;11.02;7.15;;;;;;;5.24;74.77;99504.44;5332608;26;19997;-86
2024/04/22 07:40:02;;;;;;;11.32;7.70;;;;;;;4.48;75.82;99510.78;5360639;26;20001;-86
2024/04/22 07:42:27;;;;;;;12.23;9.07;;;;;;;3.92;77.32;99524.13;5364693;26;20706;-87
2024/04/22 07:44:52;;;;;;;10.90;7.40;;;;;;;4.30;77.63;99480.56;5389243;26;20028;-86
2024/04/22 07:47:18;;;;;;;10.07;8.13;;;;;;;4.42;77.70;99521.28;5359540;26;20004;-86
2024/04/22 07:49:43;;;;;;;13.10;9.65;;;;;;;3.43;78.29;99524.06;5330467;26;19997;-86
2024/04/22 07:52:09;;;;;;;12.18;8.77;;;;;;;2.48;78.84;99422.28;5301310;26;19993;-87
2024/04/22 07:54:35;;;;;;;13.23;8.20;;;;;;;3.92;78.39;99344.56;5359361;26;20012;-87
2024/04/22 07:57:00;;;;;;;10.65;8.60;;;;;;;5.07;76.52;99520.84;5370111;26;20006;-86
2024/04/22 07:59:26;;;;;;;14.65;8.43;;;;;;;2.98;75.87;99436.28;5364830;26;20035;-87
2024/04/22 08:01:52;;;;;;;13.23;9.13;;;;;;;3.43;79.54;99402.69;5363706;26;19993;-86
2024/04/22 08:04:17;;;;;;;12.20;10.02;;;;;;;4.32;76.85;99511.06;5363280;26;20000;-86
2024/04/22 08:06:46;;;;;;;14.30;9.73;;;;;;;4.82;76.01;99443.03;5393022;26;19996;-87
2024/04/22 08:09:12;;;;;;;11.68;8.48;;;;;;;4.61;77.55;99525.88;5391968;26;20002;-87
2024/04/22 08:11:37;;;;;;;12.43;8.43;;;;;;;3.82;75.07;99423.31;5328138;26;20318;-87
2024/04/22 08:14:02;;;;;;;9.25;6.80;;;;;;;4.14;76.73;99502.81;5386559;26;19997;-86
2024/04/22 08:16:28;;;;;;;11.02;7.85;;;;;;;4.79;76.68;99477.78;5357470;26;20004;-86
2024/04/22 08:18:54;;;;;;;10.48;8.00;;;;;;;3.97;74.39;99469.75;5349373;26;20004;-86
2024/04/22 08:21:19;;;;;;;12.88;7.88;;;;;;;5.62;74.22;99503.94;5361288;26;20351;-86
2024/04/22 08:23:44;;;;;;;9.70;7.28;;;;;;;5.46;73.00;99521.00;5334433;26;20031;-86
2024/04/22 08:26:10;;;;;;;10.90;6.65;;;;;;;4.62;74.58;99410.41;5333970;26;19996;-86
2024/04/22 08:28:35;;;;;;;10.25;7.20;;;;;;;5.20;72.09;99418.53;5362482;26;20000;-86
2024/04/22 08:31:08;;;;;;;9.90;7.07;;;;;;;5.94;71.38;99505.91;5362663;26;20506;-86
2024/04/22 08:33:34;;;;;;;11.73;7.10;;;;;;;5.77;70.85;99446.31;5392154;26;20050;-86
2024/04/22 08:35:59;;;;;;;8.95;6.97;;;;;;;5.65;70.74;99424.94;5392215;26;20008;-86
2024/04/22 08:38:25;;;;;;;10.43;7.00;;;;;;;5.76;69.25;99501.16;5392427;26;20015;-86
2024/04/22 08:40:51;;;;;;;14.50;6.70;;;;;;;4.98;71.25;99451.44;5391349;26;20045;-86
2024/04/22 08:43:16;;;;;;;11.27;7.40;;;;;;;5.67;70.18;99419.44;5361770;26;20011;-85
2024/04/22 08:45:43;;;;;;;10.00;7.25;;;;;;;6.34;68.80;99502.22;5390591;26;20336;-85
2024/04/22 08:48:22;;;;;;;7.28;6.18;;;;;;;6.58;68.67;99519.31;5467277;26;20360;-73
2024/04/22 08:50:50;;;;;;;10.93;7.78;;;;;;;6.29;69.16;99515.25;5466494;26;19999;-73
2024/04/22 08:53:16;;;;;;;8.57;6.10;;;;;;;6.45;68.14;99511.38;5467839;26;20005;-73
2024/04/22 08:55:41;;;;;;;8.48;6.47;;;;;;;6.37;69.16;99511.59;5465539;26;20002;-73
2024/04/22 08:58:07;;;;;;;8.95;6.85;;;;;;;6.26;68.93;99496.31;5467541;26;20007;-73
2024/04/22 09:00:33;;;;;;;8.95;6.43;;;;;;;6.68;67.70;99503.81;5445196;26;20007;-73
2024/04/22 09:02:58;;;;;;;8.30;6.55;;;;;;;6.50;68.51;99514.25;5431317;26;19996;-73
2024/04/22 09:05:24;;;;;;;8.32;6.47;;;;;;;6.42;68.11;99495.91;5431526;26;20010;-73
2024/04/22 09:07:53;;;;;;;9.60;6.35;;;;;;;5.77;67.81;99497.47;5430884;26;19999;-73
2024/04/22 09:10:24;;;;;;;6.30;5.65;;;;;;;6.59;68.53;99511.19;5429476;26;20094;-73
2024/04/22 09:12:56;;;;;;;7.18;5.55;;;;;;;6.91;67.20;99496.19;5431366;26;19999;-73
2024/04/22 09:15:21;;;;;;;8.52;6.63;;;;;;;6.54;67.52;99496.88;5429589;26;20069;-72
2024/04/22 09:17:47;;;;;;;9.93;5.97;;;;;;;6.70;67.29;99483.19;5432433;26;19999;-73
2024/04/22 09:20:19;;;;;;;10.20;5.53;;;;;;;6.73;65.83;99496.03;5466891;26;19991;-73
2024/04/22 09:22:45;;;;;;;7.53;5.72;;;;;;;6.99;66.31;99490.66;5467278;26;20011;-73
2024/04/22 09:25:10;;;;;;;8.68;5.15;;;;;;;7.19;65.93;99488.75;5467008;26;20008;-73
2024/04/22 09:27:37;;;;;;;7.07;4.88;;;;;;;7.17;65.60;99490.78;5464879;26;20002;-73
2024/04/22 09:30:06;;;;;;;7.32;4.97;;;;;;;7.21;65.58;99486.69;5466909;26;20011;-74
2024/04/22 09:32:32;;;;;;;8.43;4.47;;;;;;;7.06;65.11;99486.13;5465224;26;20400;-74
2024/04/22 09:35:09;;;;;;;6.25;4.30;;;;;;;7.32;65.27;99490.50;5466381;26;19999;-74
2024/04/22 09:37:35;;;;;;;6.05;4.50;;;;;;;7.56;64.45;99495.91;5466846;26;20006;-74
2024/04/22 09:40:02;;;;;;;6.05;4.60;;;;;;;7.67;63.61;99483.78;5466696;26;20728;-74
2024/04/22 09:42:27;;;;;;;7.72;4.78;;;;;;;7.11;60.53;99480.19;5466971;26;20003;-74
2024/04/22 09:44:53;;;;;;;4.53;3.67;;;;;;;6.34;56.21;99482.84;5466966;26;20064;-73
2024/04/22 09:47:19;;;;;;;8.98;4.28;;;;;;;7.01;63.50;99487.81;5463580;26;20050;-74
2024/04/22 09:49:46;;;;;;;5.40;3.92;;;;;;;7.06;60.03;99480.00;5466316;26;20005;-74
2024/04/22 09:52:12;;;;;;;4.50;3.85;;;;;;;6.65;60.08;99475.88;5466786;26;19998;-73
2024/04/22 09:54:38;;;;;;;4.13;3.05;;;;;;;7.44;61.89;99473.72;5466703;26;20731;-74
2024/04/22 09:57:06;;;;;;;3.63;3.05;;;;;;;7.02;54.24;99471.66;5465010;26;20022;-73
2024/04/22 09:59:32;;;;;;;4.65;3.63;;;;;;;7.68;62.71;99473.97;5450588;26;19998;-74
2024/04/22 10:01:57;;;;;;;3.78;2.72;;;;;;;6.97;51.40;99468.03;5425623;26;19995;-73
2024/04/22 10:04:23;;;;;;;3.13;2.67;;;;;;;7.57;55.51;99470.97;5415028;26;20336;-74
2024/04/22 10:06:50;;;;;;;7.20;2.47;;;;;;;7.60;54.45;99467.06;5415151;26;19991;-73
2024/04/22 10:09:16;;;;;;;3.75;2.28;;;;;;;7.62;50.68;99469.53;5413067;26;20000;-74
2024/04/22 10:11:42;;;;;;;4.65;2.83;;;;;;;8.06;59.02;99467.56;5415286;26;20004;-74
2024/04/22 10:14:13;;;;;;;2.22;2.03;;;;;;;7.96;51.56;99469.91;5415101;26;19992;-74
2024/04/22 10:16:39;;;;;;;4.28;2.78;;;;;;;7.87;52.38;99457.91;5412688;26;19995;-73
2024/04/22 10:19:07;;;;;;;3.22;2.92;;;;;;;7.68;50.28;99461.50;5412947;26;19999;-73
2024/04/22 10:21:33;;;;;;;3.00;2.10;;;;;;;8.22;57.11;99437.78;5414861;26;19996;-73
2024/04/22 10:23:59;;;;;;;2.97;2.00;;;;;;;8.75;58.10;99467.34;5414832;26;20032;-74
2024/04/22 10:26:24;;;;;;;5.80;2.95;;;;;;;8.85;58.00;99454.34;5414827;26;20456;-74
2024/04/22 10:28:50;;;;;;;3.03;2.55;;;;;;;9.10;57.87;99456.09;5414307;26;20068;-73
2024/04/22 10:31:22;;;;;;;4.57;2.72;;;;;;;9.23;58.37;99450.59;5445211;26;20454;-73
2024/04/22 10:33:50;;;;;;;3.45;2.17;;;;;;;8.92;59.16;99451.59;5450392;26;19999;-74
2024/04/22 10:36:16;;;;;;;4.93;3.47;;;;;;;8.78;55.75;99452.78;5448772;26;20006;-73
2024/04/22 10:38:41;;;;;;;3.10;2.80;;;;;;;8.66;56.50;99454.56;5448781;26;19999;-74
2024/04/22 10:41:06;;;;;;;2.42;2.15;;;;;;;8.39;58.27;99451.34;5450507;26;20006;-74
2024/04/22 10:43:32;;;;;;;4.70;3.30;;;;;;;8.49;57.29;99454.31;5450467;26;20010;-73
2024/04/22 10:45:57;;;;;;;5.97;3.67;;;;;;;7.77;52.11;99452.25;5450034;26;20003;-74
2024/04/22 10:48:24;;;;;;;5.43;3.35;;;;;;;7.44;52.46;99443.69;5450042;26;20063;-74
2024/04/22 10:50:49;;;;;;;4.18;3.15;;;;;;;7.99;56.14;99453.53;5448556;26;20001;-74
2024/04/22 10:53:15;;;;;;;4.55;3.63;;;;;;;6.85;52.13;99454.59;5450247;26;19990;-73
2024/04/22 10:55:40;;;;;;;8.50;3.28;;;;;;;6.62;54.02;99454.22;5414528;26;20000;-73
2024/04/22 10:58:05;;;;;;;4.95;4.20;;;;;;;7.15;57.27;99450.38;5412302;26;20015;-73
2024/04/22 11:00:32;;;;;;;6.70;3.63;;;;;;;7.57;58.65;99457.72;5412030;26;19999;-73
2024/04/22 11:02:59;;;;;;;3.83;3.20;;;;;;;8.09;58.75;99451.19;5414235;26;20007;-72
2024/04/22 11:05:24;;;;;;;3.65;3.35;;;;;;;6.97;53.03;99439.63;5412429;26;20324;-72
2024/04/22 11:07:49;;;;;;;3.10;2.80;;;;;;;6.91;55.57;99445.78;5414471;26;20007;-73
2024/04/22 11:10:16;;;;;;;3.63;3.20;;;;;;;6.42;54.67;99442.88;5412751;26;19991;-73
2024/04/22 11:12:42;;;;;;;6.28;3.35;;;;;;;6.29;54.90;99450.84;5414887;26;19992;-73
2024/04/22 11:15:07;;;;;;;5.28;3.10;;;;;;;6.35;55.97;99447.38;5443699;26;20071;-73
2024/04/22 11:17:32;;;;;;;4.10;3.60;;;;;;;5.99;54.66;99439.84;5448784;26;19999;-73
2024/04/22 11:20:16;;;;;;;4.30;3.08;;;;;;;6.82;56.05;99439.06;5449850;26;19995;-73
2024/04/22 11:22:43;;;;;;;8.35;4.22;;;;;;;7.11;58.24;99440.38;5449974;26;20002;-73
2024/04/22 11:25:09;;;;;;;3.65;3.05;;;;;;;7.70;57.49;99446.16;5448213;26;19995;-73
2024/04/22 11:27:34;;;;;;;4.57;3.22;;;;;;;7.95;59.25;99444.31;5446296;26;20398;-73
2024/04/22 11:30:00;;;;;;;4.47;2.88;;;;;;;8.41;59.77;99441.28;5448368;26;20453;-73
2024/04/22 11:32:27;;;;;;;3.65;3.10;;;;;;;7.53;54.99;99419.28;5449620;26;19999;-73
2024/04/22 11:34:53;;;;;;;4.57;3.25;;;;;;;7.98;59.05;99446.56;5449938;26;20005;-73
2024/04/22 11:37:18;;;;;;;4.10;2.70;;;;;;;8.45;58.63;99442.50;5433371;26;19996;-73